createdAt,value
2023-02-19T00:02:42.168Z,73.51
2023-02-19T00:05:32.259Z,73.70
2023-02-19T00:08:49.596Z,73.95
2023-02-19T00:11:38.968Z,73.47
2023-02-19T00:14:31.121Z,73.81
2023-02-19T00:17:29.822Z,73.95
2023-02-19T00:20:22.539Z,74.02
2023-02-19T00:23:09.446Z,73.84
2023-02-19T00:26:17.712Z,73.70
2023-02-19T00:29:10.757Z,73.90
2023-02-19T00:32:00.238Z,73.82
2023-02-19T00:34:52.960Z,74.06
2023-02-19T00:38:11.970Z,73.72
2023-02-19T00:41:25.878Z,73.51
2023-02-19T00:44:13.391Z,73.64
2023-02-19T00:47:05.405Z,73.76
2023-02-19T00:49:52.359Z,73.54
2023-02-19T01:03:16.807Z,74.28
2023-02-19T01:09:31.929Z,73.85
2023-02-19T01:12:54.930Z,73.90
2023-02-19T01:15:47.546Z,73.60
2023-02-19T01:19:02.178Z,74.22
2023-02-19T01:22:04.102Z,73.81
2023-02-19T01:32:57.858Z,74.43
2023-02-19T01:36:32.257Z,74.30
2023-02-19T01:39:38.020Z,74.22
2023-02-19T01:42:26.437Z,74.19
2023-02-19T01:45:56.135Z,73.84
2023-02-19T01:53:05.669Z,73.97
2023-02-19T01:59:39.526Z,74.07
2023-02-19T02:02:37.072Z,74.35
2023-02-19T02:06:23.611Z,74.66
2023-02-19T02:09:43.473Z,74.54
2023-02-19T02:19:54.815Z,74.13
2023-02-19T02:23:46.619Z,74.14
2023-02-19T02:27:32.284Z,74.30
2023-02-19T02:34:41.500Z,74.13
2023-02-19T02:38:02.185Z,74.34
2023-02-19T02:40:56.619Z,74.57
2023-02-19T02:43:48.042Z,74.85
2023-02-19T02:46:51.143Z,74.75
2023-02-19T02:50:07.246Z,74.15
2023-02-19T02:53:25.282Z,74.18
2023-02-19T02:56:38.727Z,74.74
2023-02-19T02:59:43.825Z,74.70
2023-02-19T03:06:20.978Z,74.75
2023-02-19T03:09:50.428Z,74.60
2023-02-19T03:13:11.282Z,74.57
2023-02-19T03:16:33.840Z,74.92
2023-02-19T03:23:02.444Z,74.48
2023-02-19T03:26:16.063Z,74.41
2023-02-19T03:29:29.068Z,75.10
2023-02-19T03:32:38.373Z,74.55
2023-02-19T03:35:38.129Z,74.73
2023-02-19T03:38:31.843Z,75.18
2023-02-19T03:42:08.429Z,74.56
2023-02-19T03:47:35.892Z,74.84
2023-02-19T03:50:39.371Z,74.96
2023-02-19T03:53:44.864Z,74.43
2023-02-19T03:56:42.420Z,74.96
2023-02-19T03:59:38.170Z,74.43
2023-02-19T04:02:33.302Z,74.52
2023-02-19T04:05:30.323Z,74.88
2023-02-19T04:08:33.780Z,74.93
2023-02-19T04:11:25.117Z,74.48
2023-02-19T04:14:25.123Z,74.66
2023-02-19T04:17:28.162Z,74.77
2023-02-19T04:20:22.470Z,74.93
2023-02-19T04:23:37.496Z,74.96
2023-02-19T04:26:35.148Z,74.86
2023-02-19T04:29:28.415Z,74.59
2023-02-19T04:32:16.056Z,74.45
2023-02-19T04:39:00.440Z,74.94
2023-02-19T04:41:52.251Z,74.88
2023-02-19T04:44:51.815Z,74.91
2023-02-19T04:58:05.353Z,75.06
2023-02-19T05:01:13.201Z,74.58
2023-02-19T05:04:00.391Z,75.11
2023-02-19T05:06:52.047Z,74.88
2023-02-19T05:09:38.931Z,74.96
2023-02-19T05:12:26.431Z,74.90
2023-02-19T05:15:20.333Z,75.11
2023-02-19T05:18:22.460Z,74.76
2023-02-19T05:21:10.366Z,75.35
2023-02-19T05:24:06.989Z,75.33
2023-02-19T05:27:02.249Z,75.00
2023-02-19T05:29:52.034Z,74.92
2023-02-19T05:32:39.402Z,75.18
2023-02-19T05:35:26.403Z,74.94
2023-02-19T05:38:16.003Z,75.14
2023-02-19T05:41:20.909Z,75.20
2023-02-19T05:51:19.726Z,75.15
2023-02-19T05:59:02.164Z,74.75
2023-02-19T06:08:46.479Z,74.90
2023-02-19T06:15:07.580Z,74.94
2023-02-19T06:21:42.765Z,74.59
2023-02-19T06:31:32.969Z,75.08
2023-02-19T06:34:29.998Z,75.09
2023-02-19T06:37:29.719Z,74.75
2023-02-19T06:40:44.578Z,75.04
2023-02-19T06:43:40.467Z,74.89
2023-02-19T06:46:39.425Z,75.24
2023-02-19T06:50:12.014Z,74.83
2023-02-19T06:53:01.471Z,74.98
2023-02-19T06:56:30.227Z,75.02
2023-02-19T07:05:56.836Z,75.19
2023-02-19T07:08:49.035Z,75.16
2023-02-19T07:11:59.042Z,75.11
2023-02-19T07:30:10.146Z,75.05
2023-02-19T07:32:57.060Z,75.29
2023-02-19T07:35:52.455Z,75.00
2023-02-19T07:38:39.348Z,75.06
2023-02-19T07:41:29.702Z,75.11
2023-02-19T07:44:27.267Z,75.40
2023-02-19T07:47:14.174Z,75.07
2023-02-19T07:50:03.845Z,75.06
2023-02-19T07:52:51.836Z,75.36
2023-02-19T07:55:38.613Z,75.25
2023-02-19T07:58:25.440Z,75.13
2023-02-19T08:01:16.666Z,75.07
2023-02-19T08:04:03.508Z,74.84
2023-02-19T08:06:50.270Z,74.87
2023-02-19T08:09:38.038Z,75.25
2023-02-19T08:12:43.648Z,74.75
2023-02-19T08:15:30.447Z,75.11
2023-02-19T08:18:18.418Z,74.94
2023-02-19T08:21:08.278Z,75.27
2023-02-19T08:23:55.180Z,74.81
2023-02-19T08:26:47.352Z,75.15
2023-02-19T08:29:34.974Z,75.13
2023-02-19T08:32:21.760Z,74.87
2023-02-19T08:35:08.574Z,75.07
2023-02-19T08:37:56.948Z,74.95
2023-02-19T08:40:44.058Z,74.89
2023-02-19T08:43:30.846Z,74.79
2023-02-19T08:46:17.822Z,74.45
2023-02-19T08:49:04.678Z,74.98
2023-02-19T08:51:51.486Z,74.58
2023-02-19T08:54:38.242Z,74.95
2023-02-19T08:57:25.043Z,75.18
2023-02-19T09:00:12.762Z,74.94
2023-02-19T09:02:59.645Z,74.88
2023-02-19T09:05:49.342Z,75.00
2023-02-19T09:08:36.125Z,74.73
2023-02-19T09:11:22.946Z,74.79
2023-02-19T09:14:10.118Z,74.75
2023-02-19T09:16:56.917Z,74.59
2023-02-19T09:19:46.598Z,74.96
2023-02-19T09:22:33.350Z,74.81
2023-02-19T09:25:22.528Z,75.16
2023-02-19T09:28:09.287Z,74.61
2023-02-19T09:30:56.113Z,74.65
2023-02-19T09:33:44.464Z,74.71
2023-02-19T09:36:33.396Z,74.63
2023-02-19T09:39:23.629Z,74.66
2023-02-19T09:42:10.438Z,75.16
2023-02-19T09:44:59.016Z,74.60
2023-02-19T09:47:46.252Z,74.94
2023-02-19T09:50:37.593Z,75.08
2023-02-19T09:53:27.409Z,75.11
2023-02-19T09:56:14.278Z,74.49
2023-02-19T09:59:01.307Z,74.88
2023-02-19T10:01:49.635Z,74.76
2023-02-19T10:04:37.712Z,75.24
2023-02-19T10:07:26.670Z,74.96
2023-02-19T10:10:13.406Z,74.79
2023-02-19T10:13:42.505Z,74.77
2023-02-19T10:16:29.681Z,75.09
2023-02-19T10:19:16.642Z,74.82
2023-02-19T10:22:04.208Z,75.04
2023-02-19T10:24:54.407Z,75.37
2023-02-19T10:27:41.223Z,75.15
2023-02-19T10:30:38.617Z,75.12
2023-02-19T10:33:26.056Z,74.55
2023-02-19T10:36:23.472Z,75.02
2023-02-19T10:39:35.745Z,74.97
2023-02-19T10:42:23.296Z,74.98
2023-02-19T10:45:22.615Z,75.31
2023-02-19T10:48:24.644Z,74.86
2023-02-19T10:51:21.558Z,74.99
2023-02-19T10:54:19.836Z,75.25
2023-02-19T10:57:34.611Z,75.08
2023-02-19T11:00:27.439Z,74.96
2023-02-19T11:03:22.183Z,74.93
2023-02-19T11:06:12.588Z,74.93
2023-02-19T11:09:00.162Z,75.38
2023-02-19T11:11:52.288Z,75.36
2023-02-19T11:14:45.572Z,74.82
2023-02-19T11:17:32.474Z,75.26
2023-02-19T11:20:21.464Z,75.01
2023-02-19T11:23:16.268Z,75.01
2023-02-19T11:26:08.205Z,74.84
2023-02-19T11:29:16.489Z,75.15
2023-02-19T11:32:22.282Z,75.04
2023-02-19T11:35:17.622Z,75.26
2023-02-19T11:38:11.453Z,74.96
2023-02-19T11:41:22.655Z,74.96
2023-02-19T11:44:12.570Z,74.68
2023-02-19T11:47:44.814Z,74.84
2023-02-19T11:50:49.767Z,74.93
2023-02-19T11:53:44.982Z,75.01
2023-02-19T11:56:34.930Z,75.11
2023-02-19T11:59:53.905Z,75.50
2023-02-19T12:02:44.325Z,75.02
2023-02-19T12:05:53.572Z,74.96
2023-02-19T12:08:59.650Z,75.43
2023-02-19T12:12:14.211Z,75.16
2023-02-19T12:15:20.166Z,75.43
2023-02-19T12:18:25.645Z,75.40
2023-02-19T12:21:21.379Z,75.42
2023-02-19T12:24:23.056Z,75.51
2023-02-19T12:27:17.715Z,75.19
2023-02-19T12:30:33.481Z,75.30
2023-02-19T12:33:44.903Z,75.18
2023-02-19T12:36:40.304Z,75.46
2023-02-19T12:40:05.034Z,75.14
2023-02-19T12:43:12.299Z,75.42
2023-02-19T12:46:06.820Z,75.05
2023-02-19T12:49:00.110Z,75.28
2023-02-19T12:51:49.249Z,75.31
2023-02-19T12:54:40.667Z,75.60
2023-02-19T12:57:31.771Z,75.30
2023-02-19T13:00:40.226Z,75.06
2023-02-19T13:03:33.794Z,75.04
2023-02-19T13:06:30.445Z,75.59
2023-02-19T13:09:39.749Z,75.57
2023-02-19T13:12:30.370Z,75.64
2023-02-19T13:15:44.619Z,75.82
2023-02-19T13:18:40.356Z,75.63
2023-02-19T13:22:09.528Z,75.98
2023-02-19T13:25:00.282Z,75.70
2023-02-19T13:27:54.616Z,75.88
2023-02-19T13:31:06.793Z,76.15
2023-02-19T13:34:08.094Z,75.97
2023-02-19T13:36:55.437Z,76.04
2023-02-19T13:39:48.776Z,75.87
2023-02-19T13:42:36.912Z,75.95
2023-02-19T13:45:44.192Z,76.16
2023-02-19T13:48:36.256Z,75.59
2023-02-19T13:51:29.043Z,75.79
2023-02-19T13:54:42.092Z,75.98
2023-02-19T13:57:30.566Z,75.65
2023-02-19T14:00:49.624Z,75.81
2023-02-19T14:03:41.223Z,75.63
2023-02-19T14:06:28.851Z,75.99
2023-02-19T14:09:34.674Z,75.81
2023-02-19T14:12:22.836Z,75.71
2023-02-19T14:15:41.510Z,75.48
2023-02-19T14:18:42.719Z,75.76
2023-02-19T14:21:39.940Z,75.39
2023-02-19T14:24:26.908Z,75.41
2023-02-19T14:27:13.791Z,75.88
2023-02-19T14:30:00.646Z,75.80
2023-02-19T14:32:54.582Z,75.76
2023-02-19T14:35:47.448Z,75.45
2023-02-19T14:38:38.801Z,75.61
2023-02-19T14:41:30.852Z,75.31
2023-02-19T14:44:24.895Z,75.71
2023-02-19T14:47:15.293Z,75.07
2023-02-19T14:50:05.999Z,75.49
2023-02-19T14:52:55.376Z,75.49
2023-02-19T14:55:42.918Z,75.37
2023-02-19T14:58:32.308Z,75.64
2023-02-19T15:01:27.018Z,75.28
2023-02-19T15:04:34.315Z,75.65
2023-02-19T15:07:30.382Z,75.74
2023-02-19T15:10:18.792Z,75.31
2023-02-19T15:13:12.004Z,75.70
2023-02-19T15:15:59.148Z,75.49
2023-02-19T15:18:47.159Z,75.43
2023-02-19T15:21:36.068Z,75.19
2023-02-19T15:24:23.047Z,75.61
2023-02-19T15:27:17.961Z,75.50
2023-02-19T15:30:18.650Z,75.40
2023-02-19T15:33:16.797Z,75.50
2023-02-19T15:36:07.339Z,75.23
2023-02-19T15:38:56.602Z,75.45
2023-02-19T15:41:51.471Z,75.25
2023-02-19T15:44:49.404Z,75.44
2023-02-19T15:47:49.121Z,75.41
2023-02-19T15:50:39.271Z,75.09
2023-02-19T15:53:29.714Z,75.66
2023-02-19T15:56:28.100Z,75.02
2023-02-19T15:59:20.552Z,74.87
2023-02-19T16:02:12.329Z,75.31
2023-02-19T16:05:02.150Z,75.29
2023-02-19T16:08:07.410Z,75.13
2023-02-19T16:10:56.169Z,75.09
2023-02-19T16:13:44.520Z,75.31
2023-02-19T16:16:36.249Z,75.35
2023-02-19T16:19:31.201Z,75.58
2023-02-19T16:22:20.135Z,75.18
2023-02-19T16:25:07.276Z,74.92
2023-02-19T16:27:54.423Z,75.34
2023-02-19T16:30:41.827Z,75.18
2023-02-19T16:33:41.189Z,75.30
2023-02-19T16:36:41.232Z,75.38
2023-02-19T16:39:28.136Z,74.86
2023-02-19T16:42:15.084Z,75.35
2023-02-19T16:45:01.931Z,74.95
2023-02-19T16:47:51.096Z,74.73
2023-02-19T16:50:39.570Z,75.10
2023-02-19T16:53:26.360Z,75.12
2023-02-19T16:56:22.741Z,74.68
2023-02-19T16:59:09.547Z,74.78
2023-02-19T17:01:56.402Z,75.06
2023-02-19T17:04:43.235Z,74.64
2023-02-19T17:07:30.045Z,75.06
2023-02-19T17:10:23.745Z,75.00
2023-02-19T17:13:19.484Z,75.06
2023-02-19T17:16:20.579Z,75.01
2023-02-19T17:19:25.190Z,74.60
2023-02-19T17:22:16.977Z,74.47
2023-02-19T17:25:03.904Z,74.71
2023-02-19T17:27:50.708Z,74.75
2023-02-19T17:30:39.888Z,74.48
2023-02-19T17:33:26.885Z,74.52
2023-02-19T17:36:30.397Z,74.54
2023-02-19T17:39:17.508Z,74.34
2023-02-19T17:42:05.201Z,74.48
2023-02-19T17:44:53.327Z,74.69
2023-02-19T17:47:42.435Z,74.55
2023-02-19T17:50:33.116Z,74.65
2023-02-19T17:53:19.863Z,74.76
2023-02-19T17:56:06.966Z,74.27
2023-02-19T17:58:57.479Z,74.24
2023-02-19T18:01:46.007Z,74.89
2023-02-19T18:04:47.178Z,74.67
2023-02-19T18:07:41.428Z,74.64
2023-02-19T18:10:52.699Z,74.59
2023-02-19T18:14:04.528Z,74.79
2023-02-19T18:16:59.018Z,74.60
2023-02-19T18:20:02.594Z,74.88
2023-02-19T18:22:57.990Z,74.50
2023-02-19T18:25:49.457Z,74.54
2023-02-19T18:28:46.577Z,74.58
2023-02-19T18:31:46.053Z,74.81
2023-02-19T18:34:44.650Z,74.65
2023-02-19T18:37:42.621Z,74.33
2023-02-19T18:40:33.229Z,74.88
2023-02-19T18:43:36.462Z,74.54
2023-02-19T18:46:35.132Z,74.50
2023-02-19T18:49:33.480Z,74.88
2023-02-19T18:52:26.602Z,74.29
2023-02-19T18:55:20.203Z,74.31
2023-02-19T18:58:16.611Z,74.49
2023-02-19T19:01:04.358Z,74.81
2023-02-19T19:04:00.036Z,74.83
2023-02-19T19:06:50.318Z,74.88
2023-02-19T19:09:47.008Z,74.80
2023-02-19T19:12:43.594Z,74.56
2023-02-19T19:15:44.322Z,74.54
2023-02-19T19:18:46.187Z,74.49
2023-02-19T19:21:33.144Z,74.48
2023-02-19T19:24:24.433Z,74.89
2023-02-19T19:27:22.526Z,74.74
2023-02-19T19:30:11.810Z,74.75
2023-02-19T19:33:01.513Z,74.64
2023-02-19T19:35:49.275Z,74.44
2023-02-19T19:38:40.661Z,75.07
2023-02-19T19:41:27.821Z,74.75
2023-02-19T19:44:20.419Z,74.87
2023-02-19T19:47:07.607Z,74.69
2023-02-19T19:49:54.764Z,75.19
2023-02-19T19:52:44.861Z,74.46
2023-02-19T19:55:32.000Z,74.90
2023-02-19T19:58:31.546Z,74.90
2023-02-19T20:01:21.279Z,74.78
2023-02-19T20:04:13.508Z,74.76
2023-02-19T20:07:05.915Z,74.83
2023-02-19T20:09:55.724Z,74.59
2023-02-19T20:12:45.468Z,74.70
2023-02-19T20:15:38.657Z,75.08
2023-02-19T20:18:31.276Z,75.00
2023-02-19T20:21:21.078Z,74.84
2023-02-19T20:24:13.917Z,74.97
2023-02-19T20:27:07.288Z,74.67
2023-02-19T20:30:03.570Z,74.87
2023-02-19T20:36:08.375Z,74.98
2023-02-19T20:39:06.715Z,75.24
2023-02-19T20:42:08.954Z,75.19
2023-02-19T20:45:01.986Z,74.87
2023-02-19T20:47:51.047Z,74.86
2023-02-19T20:50:44.342Z,74.90
2023-02-19T20:53:37.278Z,75.03
2023-02-19T20:56:36.352Z,74.81
2023-02-19T20:59:30.282Z,74.88
2023-02-19T21:02:35.128Z,75.17
2023-02-19T21:05:28.066Z,75.03
2023-02-19T21:08:21.855Z,75.39
2023-02-19T21:11:20.755Z,75.11
2023-02-19T21:14:14.924Z,75.04
2023-02-19T21:17:07.017Z,75.12
2023-02-19T21:19:54.738Z,75.27
2023-02-19T21:22:52.431Z,75.29
2023-02-19T21:28:42.738Z,74.95
2023-02-19T21:31:49.170Z,75.27
2023-02-19T21:34:37.242Z,75.03
2023-02-19T21:37:25.658Z,74.89
2023-02-19T21:40:29.314Z,74.92
2023-02-19T21:43:24.770Z,74.92
2023-02-19T21:46:23.947Z,75.18
2023-02-19T21:49:29.212Z,75.10
2023-02-19T21:52:18.606Z,75.42
2023-02-19T21:55:42.920Z,74.86
2023-02-19T21:58:55.265Z,74.91
2023-02-19T22:01:53.608Z,74.90
2023-02-19T22:13:11.995Z,75.12
2023-02-19T22:15:59.168Z,75.25
2023-02-19T22:18:55.786Z,75.25
2023-02-19T22:21:45.282Z,74.93
2023-02-19T22:24:39.219Z,75.06
2023-02-19T22:27:30.155Z,75.14
2023-02-19T22:30:33.709Z,75.25
2023-02-19T22:33:29.922Z,75.20
2023-02-19T22:36:28.020Z,74.99
2023-02-19T22:39:44.921Z,75.14
2023-02-19T22:42:48.508Z,75.20
2023-02-19T22:45:55.013Z,75.28
2023-02-19T22:49:15.403Z,75.17
2023-02-19T22:52:14.688Z,75.22
2023-02-19T22:55:09.668Z,75.43
2023-02-19T22:58:02.381Z,75.77
2023-02-19T23:00:55.269Z,74.89
2023-02-19T23:03:53.597Z,75.00
2023-02-19T23:06:49.438Z,75.16
2023-02-19T23:12:51.077Z,75.38
2023-02-19T23:15:39.435Z,75.25
2023-02-19T23:18:36.389Z,75.12
2023-02-19T23:21:38.752Z,75.19
2023-02-19T23:24:26.153Z,75.41
2023-02-19T23:27:29.150Z,75.46
2023-02-19T23:30:28.455Z,75.23
2023-02-19T23:33:18.780Z,75.51
2023-02-19T23:41:22.449Z,75.14
2023-02-19T23:44:09.547Z,75.22
2023-02-19T23:47:04.303Z,75.39
2023-02-19T23:49:54.057Z,75.51
2023-02-19T23:52:41.162Z,75.16
2023-02-19T23:55:28.744Z,75.21
2023-02-19T23:58:19.815Z,75.40
